Vero Beach, FL

4:04 PM EDT on September 30, 2014 (GMT -0400)
FL_Meso Indian River FAWN | Change Station
CLOSE
Current Station
Personal Weather Station
Location: Vero Beach, FL
Elevation: 23 ft
Nearby Weather Stations
Active Advisory: Areal Flood Watch

Elev 23 ft 27.62 °N, 80.57 °W | Updated 167 days ago

Thunderstorm
Thunderstorm
86 °F
Feels Like 92 °F
N
8
Wind Variable Wind from West
Gusts 13 mph

Today
High -- | Low -- °F
--% Chance of Precip.
Yesterday
High -- | Low -- °F
Precip. -- in
7:14 AM 7:09 PM
Waxing Crescent, 39% visible
Pressure 29.81 in
Visibility 10.0 miles
Clouds Few 3700 ft
Few 7500 ft
Heat Index 92 °F
Dew Point 72 °F
Humidity 62%
Rainfall -999.00 in
Snow Depth Not available.
UV 6 out of 12
Pollen 3.90 out of 12
Air Quality Not available.
Flu Activity Not available.
METAR KVRB 301953Z 30007KT 10SM FEW037 FEW075 26/24 A2981 RMK AO2 LTG DSNT N-SE RAE10 TSE06 SLP095 P0004 T02560239

More Conditions Fewer Conditions

Pressure 29.81 in
Visibility 10.0 miles
Clouds Few 3700 ft
Few 7500 ft
Heat Index 92 °F
Dew Point 72 °F
Humidity 62%
Rainfall -999.00 in
Snow Depth Not available.
UV 6 out of 12
Pollen 3.90 out of 12
Air Quality Not available.
Flu Activity Not available.
METAR KVRB 301953Z 30007KT 10SM FEW037 FEW075 26/24 A2981 RMK AO2 LTG DSNT N-SE RAE10 TSE06 SLP095 P0004 T02560239

More Conditions Fewer Conditions

Nowcast | as of 3:32 PM EDT on September 30, 2014

Scattered showers and isolated storms that formed along and ahead of a weak frontal boundary sagging into east central Florida have produced one half inch to one inch rain totals so far. There is still a chance for additional showers and storms into early evening...so some higher totals to near 2 inches could occur in isolated locations. Additional details...including graphics are available online at: http://www.Srh.NOAA.Gov/mlb/blog.Php

×

10-Day Weather Forecast

Almanac

Astronomy

Sep. 30, 2014 Rise Set
Actual Time 7:14 AM EDT 7:09 PM EDT
Civil Twilight 6:51 AM EDT 7:32 PM EDT
Nautical Twilight 6:24 AM EDT 7:59 PM EDT
Astronomical Twilight 5:56 AM EDT 8:27 PM EDT
Moon 12:58 PM EDT No Moon Set
Length of Visible Light 12h 41m
Length of Day
11h 54m
Tomorrow will be 1m 37s shorter.
Waxing Crescent, 39% of the Moon is Illuminated
Today
Waxing Crescent
Oct 1
First Quarter
Oct 8
Full
Oct 15
Last Quarter
Oct 23
New

Today's Extremes

State Highs State Lows

Community

WunderPhotos

Upload Photos

1,757,736 photos uploaded!

Nearby

Snow Depth

Station Depth Elevation
No new snow has been reported.

Earthquake Activity

City Distance Mag. Time & Date
No recent earthquake activity has been reported nearby.
Minimum magnitude displayed is 2.5.

Coastal Water Temperatures

Place Temperature
Lake Worth, FL 84.9 °F
Trident Pier, FL 84.0 °F
Virginia Key, FL 86.0 °F

Nearby Weather Stations